sensor_id;sensor_type;location;lat;lon;timestamp;temperature;humidity
20610;DHT22;10463;52.378;9.688;2022-10-16T00:02:33;29.00;27.00
20610;DHT22;10463;52.378;9.688;2022-10-16T00:05:19;29.00;27.00
20610;DHT22;10463;52.378;9.688;2022-10-16T00:08:04;29.00;26.90
20610;DHT22;10463;52.378;9.688;2022-10-16T00:10:49;28.90;26.90
20610;DHT22;10463;52.378;9.688;2022-10-16T00:13:36;28.90;26.90
20610;DHT22;10463;52.378;9.688;2022-10-16T00:16:21;28.90;26.90
20610;DHT22;10463;52.378;9.688;2022-10-16T00:19:06;28.90;26.80
20610;DHT22;10463;52.378;9.688;2022-10-16T00:21:53;28.90;26.70
20610;DHT22;10463;52.378;9.688;2022-10-16T00:24:38;28.90;26.70
20610;DHT22;10463;52.378;9.688;2022-10-16T00:27:23;28.80;26.60
20610;DHT22;10463;52.378;9.688;2022-10-16T00:30:09;28.80;26.60
20610;DHT22;10463;52.378;9.688;2022-10-16T00:32:54;28.70;26.50
20610;DHT22;10463;52.378;9.688;2022-10-16T00:35:38;28.70;26.40
20610;DHT22;10463;52.378;9.688;2022-10-16T00:38:24;28.70;26.40
20610;DHT22;10463;52.378;9.688;2022-10-16T00:41:12;28.60;26.30
20610;DHT22;10463;52.378;9.688;2022-10-16T00:43:59;28.70;26.40
20610;DHT22;10463;52.378;9.688;2022-10-16T00:46:45;28.60;26.40
20610;DHT22;10463;52.378;9.688;2022-10-16T00:49:30;28.60;26.40
20610;DHT22;10463;52.378;9.688;2022-10-16T00:52:15;28.60;26.40
20610;DHT22;10463;52.378;9.688;2022-10-16T00:55:03;28.50;26.40
20610;DHT22;10463;52.378;9.688;2022-10-16T00:57:50;28.50;26.50
20610;DHT22;10463;52.378;9.688;2022-10-16T01:00:35;28.50;26.50
20610;DHT22;10463;52.378;9.688;2022-10-16T01:03:27;28.50;26.50
20610;DHT22;10463;52.378;9.688;2022-10-16T01:06:24;28.40;26.40
20610;DHT22;10463;52.378;9.688;2022-10-16T01:09:16;28.50;26.50
20610;DHT22;10463;52.378;9.688;2022-10-16T01:12:09;28.40;26.40
20610;DHT22;10463;52.378;9.688;2022-10-16T01:14:59;28.40;26.50
20610;DHT22;10463;52.378;9.688;2022-10-16T01:17:49;28.40;26.50
20610;DHT22;10463;52.378;9.688;2022-10-16T01:20:39;28.40;27.00
20610;DHT22;10463;52.378;9.688;2022-10-16T01:23:41;28.40;26.50
20610;DHT22;10463;52.378;9.688;2022-10-16T01:26:40;28.40;26.50
20610;DHT22;10463;52.378;9.688;2022-10-16T01:29:36;28.30;26.50
20610;DHT22;10463;52.378;9.688;2022-10-16T01:32:31;28.30;26.50
20610;DHT22;10463;52.378;9.688;2022-10-16T01:35:23;28.30;26.60
20610;DHT22;10463;52.378;9.688;2022-10-16T01:38:14;28.30;26.60
20610;DHT22;10463;52.378;9.688;2022-10-16T01:41:06;28.30;26.60
20610;DHT22;10463;52.378;9.688;2022-10-16T01:43:58;28.30;26.60
20610;DHT22;10463;52.378;9.688;2022-10-16T01:46:51;28.30;26.60
20610;DHT22;10463;52.378;9.688;2022-10-16T01:49:39;28.20;26.50
20610;DHT22;10463;52.378;9.688;2022-10-16T01:52:27;28.20;26.60
20610;DHT22;10463;52.378;9.688;2022-10-16T01:55:22;28.20;26.60
20610;DHT22;10463;52.378;9.688;2022-10-16T01:58:10;28.20;26.60
20610;DHT22;10463;52.378;9.688;2022-10-16T02:00:56;28.20;26.60
20610;DHT22;10463;52.378;9.688;2022-10-16T02:03:44;28.10;26.50
20610;DHT22;10463;52.378;9.688;2022-10-16T02:06:30;28.20;26.60
20610;DHT22;10463;52.378;9.688;2022-10-16T02:09:15;28.20;26.70
20610;DHT22;10463;52.378;9.688;2022-10-16T02:12:07;28.20;27.20
20610;DHT22;10463;52.378;9.688;2022-10-16T02:14:54;28.20;27.20
20610;DHT22;10463;52.378;9.688;2022-10-16T02:17:39;28.10;26.60
20610;DHT22;10463;52.378;9.688;2022-10-16T02:20:28;28.10;26.60
20610;DHT22;10463;52.378;9.688;2022-10-16T02:23:24;28.10;26.60
20610;DHT22;10463;52.378;9.688;2022-10-16T02:26:15;28.10;26.60
20610;DHT22;10463;52.378;9.688;2022-10-16T02:29:06;28.10;26.60
20610;DHT22;10463;52.378;9.688;2022-10-16T02:31:56;28.10;26.70
20610;DHT22;10463;52.378;9.688;2022-10-16T02:34:43;28.10;26.70
20610;DHT22;10463;52.378;9.688;2022-10-16T02:37:32;28.10;26.70
20610;DHT22;10463;52.378;9.688;2022-10-16T02:40:18;28.00;26.60
20610;DHT22;10463;52.378;9.688;2022-10-16T02:43:04;28.00;26.70
20610;DHT22;10463;52.378;9.688;2022-10-16T02:45:50;28.00;26.60
20610;DHT22;10463;52.378;9.688;2022-10-16T02:48:35;28.00;26.70
20610;DHT22;10463;52.378;9.688;2022-10-16T02:51:20;28.00;26.70
20610;DHT22;10463;52.378;9.688;2022-10-16T02:54:06;27.90;26.70
20610;DHT22;10463;52.378;9.688;2022-10-16T02:56:51;27.90;26.70
20610;DHT22;10463;52.378;9.688;2022-10-16T02:59:36;27.90;26.70
20610;DHT22;10463;52.378;9.688;2022-10-16T03:02:20;27.90;26.70
20610;DHT22;10463;52.378;9.688;2022-10-16T03:05:06;27.90;26.80
20610;DHT22;10463;52.378;9.688;2022-10-16T03:07:51;27.80;26.70
20610;DHT22;10463;52.378;9.688;2022-10-16T03:10:38;27.90;26.80
20610;DHT22;10463;52.378;9.688;2022-10-16T03:13:23;27.80;26.70
20610;DHT22;10463;52.378;9.688;2022-10-16T03:16:08;27.80;26.70
20610;DHT22;10463;52.378;9.688;2022-10-16T03:18:52;27.80;26.80
20610;DHT22;10463;52.378;9.688;2022-10-16T03:21:37;27.80;26.80
20610;DHT22;10463;52.378;9.688;2022-10-16T03:24:22;27.80;26.80
20610;DHT22;10463;52.378;9.688;2022-10-16T03:27:08;27.80;26.80
20610;DHT22;10463;52.378;9.688;2022-10-16T03:29:53;27.80;26.80
20610;DHT22;10463;52.378;9.688;2022-10-16T03:32:37;27.80;26.90
20610;DHT22;10463;52.378;9.688;2022-10-16T03:35:23;27.80;26.80
20610;DHT22;10463;52.378;9.688;2022-10-16T03:38:08;27.70;26.80
20610;DHT22;10463;52.378;9.688;2022-10-16T03:40:53;27.70;26.80
20610;DHT22;10463;52.378;9.688;2022-10-16T03:43:39;27.70;26.80
20610;DHT22;10463;52.378;9.688;2022-10-16T03:46:23;27.70;26.90
20610;DHT22;10463;52.378;9.688;2022-10-16T03:49:08;27.70;26.90
20610;DHT22;10463;52.378;9.688;2022-10-16T03:51:54;27.70;26.90
20610;DHT22;10463;52.378;9.688;2022-10-16T03:54:39;27.70;26.90
20610;DHT22;10463;52.378;9.688;2022-10-16T03:57:24;27.70;26.90
20610;DHT22;10463;52.378;9.688;2022-10-16T04:00:12;27.70;26.90
20610;DHT22;10463;52.378;9.688;2022-10-16T04:02:57;27.70;26.90
20610;DHT22;10463;52.378;9.688;2022-10-16T04:05:42;27.70;26.90
20610;DHT22;10463;52.378;9.688;2022-10-16T04:08:27;27.70;27.00
20610;DHT22;10463;52.378;9.688;2022-10-16T04:11:12;27.70;27.00
20610;DHT22;10463;52.378;9.688;2022-10-16T04:13:57;27.60;27.50
20610;DHT22;10463;52.378;9.688;2022-10-16T04:16:43;27.60;26.90
20610;DHT22;10463;52.378;9.688;2022-10-16T04:19:28;27.60;26.90
20610;DHT22;10463;52.378;9.688;2022-10-16T04:22:13;27.60;27.00
20610;DHT22;10463;52.378;9.688;2022-10-16T04:24:58;27.60;27.00
20610;DHT22;10463;52.378;9.688;2022-10-16T04:27:43;27.60;27.00
20610;DHT22;10463;52.378;9.688;2022-10-16T04:30:27;27.60;27.10
20610;DHT22;10463;52.378;9.688;2022-10-16T04:33:14;27.50;27.10
20610;DHT22;10463;52.378;9.688;2022-10-16T04:36:00;27.50;27.20
20610;DHT22;10463;52.378;9.688;2022-10-16T04:38:45;27.50;27.20
20610;DHT22;10463;52.378;9.688;2022-10-16T04:41:30;27.50;27.20
20610;DHT22;10463;52.378;9.688;2022-10-16T04:44:15;27.50;27.20
20610;DHT22;10463;52.378;9.688;2022-10-16T04:46:59;27.40;27.30
20610;DHT22;10463;52.378;9.688;2022-10-16T04:49:46;27.40;27.30
20610;DHT22;10463;52.378;9.688;2022-10-16T04:52:30;27.40;27.30
20610;DHT22;10463;52.378;9.688;2022-10-16T04:55:15;27.40;27.30
20610;DHT22;10463;52.378;9.688;2022-10-16T04:58:00;27.40;27.80
20610;DHT22;10463;52.378;9.688;2022-10-16T05:00:45;27.30;27.30
20610;DHT22;10463;52.378;9.688;2022-10-16T05:03:31;27.40;27.40
20610;DHT22;10463;52.378;9.688;2022-10-16T05:06:17;27.30;27.30
20610;DHT22;10463;52.378;9.688;2022-10-16T05:09:02;27.30;27.30
20610;DHT22;10463;52.378;9.688;2022-10-16T05:11:46;27.30;27.30
20610;DHT22;10463;52.378;9.688;2022-10-16T05:14:31;27.30;27.30
20610;DHT22;10463;52.378;9.688;2022-10-16T05:17:16;27.30;27.40
20610;DHT22;10463;52.378;9.688;2022-10-16T05:20:01;27.30;27.40
20610;DHT22;10463;52.378;9.688;2022-10-16T05:22:49;27.30;27.40
20610;DHT22;10463;52.378;9.688;2022-10-16T05:25:34;27.30;27.40
20610;DHT22;10463;52.378;9.688;2022-10-16T05:28:19;27.30;27.40
20610;DHT22;10463;52.378;9.688;2022-10-16T05:31:05;27.30;27.40
20610;DHT22;10463;52.378;9.688;2022-10-16T05:33:51;27.30;27.40
20610;DHT22;10463;52.378;9.688;2022-10-16T05:36:36;27.30;27.40
20610;DHT22;10463;52.378;9.688;2022-10-16T05:39:22;27.30;27.40
20610;DHT22;10463;52.378;9.688;2022-10-16T05:42:07;27.30;27.40
20610;DHT22;10463;52.378;9.688;2022-10-16T05:44:52;27.30;27.40
20610;DHT22;10463;52.378;9.688;2022-10-16T05:47:37;27.30;27.40
20610;DHT22;10463;52.378;9.688;2022-10-16T05:50:22;27.30;27.90
20610;DHT22;10463;52.378;9.688;2022-10-16T05:53:07;27.30;27.40
20610;DHT22;10463;52.378;9.688;2022-10-16T05:55:54;27.30;27.40
20610;DHT22;10463;52.378;9.688;2022-10-16T05:58:40;27.30;27.40
20610;DHT22;10463;52.378;9.688;2022-10-16T06:01:25;27.30;27.40
20610;DHT22;10463;52.378;9.688;2022-10-16T06:04:10;27.30;27.40
20610;DHT22;10463;52.378;9.688;2022-10-16T06:06:58;27.30;27.40
20610;DHT22;10463;52.378;9.688;2022-10-16T06:09:48;27.30;27.40
20610;DHT22;10463;52.378;9.688;2022-10-16T06:12:35;27.30;27.30
20610;DHT22;10463;52.378;9.688;2022-10-16T06:15:20;27.30;27.30
20610;DHT22;10463;52.378;9.688;2022-10-16T06:18:05;27.40;27.40
20610;DHT22;10463;52.378;9.688;2022-10-16T06:20:49;27.40;27.40
20610;DHT22;10463;52.378;9.688;2022-10-16T06:23:34;27.40;27.40
20610;DHT22;10463;52.378;9.688;2022-10-16T06:26:22;27.30;27.40
20610;DHT22;10463;52.378;9.688;2022-10-16T06:29:09;27.40;27.50
20610;DHT22;10463;52.378;9.688;2022-10-16T06:31:54;27.40;28.00
20610;DHT22;10463;52.378;9.688;2022-10-16T06:34:39;27.40;27.50
20610;DHT22;10463;52.378;9.688;2022-10-16T06:37:25;27.30;27.40
20610;DHT22;10463;52.378;9.688;2022-10-16T06:40:11;27.30;27.40
20610;DHT22;10463;52.378;9.688;2022-10-16T06:42:55;27.30;27.40
20610;DHT22;10463;52.378;9.688;2022-10-16T06:45:42;27.30;27.40
20610;DHT22;10463;52.378;9.688;2022-10-16T06:48:28;27.30;27.40
20610;DHT22;10463;52.378;9.688;2022-10-16T06:51:15;27.30;27.40
20610;DHT22;10463;52.378;9.688;2022-10-16T06:54:00;27.30;27.40
20610;DHT22;10463;52.378;9.688;2022-10-16T06:56:44;27.30;27.50
20610;DHT22;10463;52.378;9.688;2022-10-16T06:59:29;27.30;27.50
20610;DHT22;10463;52.378;9.688;2022-10-16T07:02:15;27.30;27.50
20610;DHT22;10463;52.378;9.688;2022-10-16T07:05:00;27.30;27.50
20610;DHT22;10463;52.378;9.688;2022-10-16T07:07:45;27.30;27.50
20610;DHT22;10463;52.378;9.688;2022-10-16T07:10:29;27.30;27.60
20610;DHT22;10463;52.378;9.688;2022-10-16T07:13:14;27.30;28.10
20610;DHT22;10463;52.378;9.688;2022-10-16T07:16:05;27.30;27.60
20610;DHT22;10463;52.378;9.688;2022-10-16T07:18:52;27.40;27.70
20610;DHT22;10463;52.378;9.688;2022-10-16T07:21:42;27.30;27.70
20610;DHT22;10463;52.378;9.688;2022-10-16T07:24:27;27.40;28.20
20610;DHT22;10463;52.378;9.688;2022-10-16T07:27:11;27.40;27.80
20610;DHT22;10463;52.378;9.688;2022-10-16T07:29:56;27.40;27.70
20610;DHT22;10463;52.378;9.688;2022-10-16T07:32:41;27.40;27.70
20610;DHT22;10463;52.378;9.688;2022-10-16T07:35:27;27.40;28.30
20610;DHT22;10463;52.378;9.688;2022-10-16T07:38:12;27.40;27.80
20610;DHT22;10463;52.378;9.688;2022-10-16T07:40:58;27.30;27.70
20610;DHT22;10463;52.378;9.688;2022-10-16T07:43:46;27.30;27.80
20610;DHT22;10463;52.378;9.688;2022-10-16T07:46:31;27.30;27.80
20610;DHT22;10463;52.378;9.688;2022-10-16T07:49:18;27.30;27.80
20610;DHT22;10463;52.378;9.688;2022-10-16T07:52:04;27.30;27.80
20610;DHT22;10463;52.378;9.688;2022-10-16T07:54:48;27.30;27.90
20610;DHT22;10463;52.378;9.688;2022-10-16T07:57:33;27.30;27.90
20610;DHT22;10463;52.378;9.688;2022-10-16T08:00:18;27.30;27.90
20610;DHT22;10463;52.378;9.688;2022-10-16T08:03:03;27.30;27.90
20610;DHT22;10463;52.378;9.688;2022-10-16T08:05:48;27.30;27.90
20610;DHT22;10463;52.378;9.688;2022-10-16T08:08:35;27.30;27.90
20610;DHT22;10463;52.378;9.688;2022-10-16T08:11:20;27.30;28.00
20610;DHT22;10463;52.378;9.688;2022-10-16T08:14:11;27.30;28.00
20610;DHT22;10463;52.378;9.688;2022-10-16T08:16:56;27.30;28.00
20610;DHT22;10463;52.378;9.688;2022-10-16T08:19:44;27.30;28.00
20610;DHT22;10463;52.378;9.688;2022-10-16T08:22:29;27.30;28.00
20610;DHT22;10463;52.378;9.688;2022-10-16T08:25:15;27.30;28.00
20610;DHT22;10463;52.378;9.688;2022-10-16T08:28:00;27.30;28.00
20610;DHT22;10463;52.378;9.688;2022-10-16T08:30:44;27.30;28.00
20610;DHT22;10463;52.378;9.688;2022-10-16T08:33:29;27.40;28.00
20610;DHT22;10463;52.378;9.688;2022-10-16T08:36:15;27.40;28.00
20610;DHT22;10463;52.378;9.688;2022-10-16T08:39:00;27.40;28.00
20610;DHT22;10463;52.378;9.688;2022-10-16T08:42:30;27.40;28.00
20610;DHT22;10463;52.378;9.688;2022-10-16T08:45:32;27.40;28.00
20610;DHT22;10463;52.378;9.688;2022-10-16T08:48:23;27.50;28.10
20610;DHT22;10463;52.378;9.688;2022-10-16T08:51:15;27.50;28.10
20610;DHT22;10463;52.378;9.688;2022-10-16T08:54:05;27.50;28.10
20610;DHT22;10463;52.378;9.688;2022-10-16T08:56:50;27.60;28.20
20610;DHT22;10463;52.378;9.688;2022-10-16T08:59:37;27.70;28.20
20610;DHT22;10463;52.378;9.688;2022-10-16T09:02:31;27.70;28.20
20610;DHT22;10463;52.378;9.688;2022-10-16T09:05:45;27.70;28.20
20610;DHT22;10463;52.378;9.688;2022-10-16T09:08:39;27.70;28.20
20610;DHT22;10463;52.378;9.688;2022-10-16T09:11:34;27.80;28.30
20610;DHT22;10463;52.378;9.688;2022-10-16T09:14:44;27.80;28.30
20610;DHT22;10463;52.378;9.688;2022-10-16T09:17:41;27.80;28.30
20610;DHT22;10463;52.378;9.688;2022-10-16T09:20:45;27.80;28.30
20610;DHT22;10463;52.378;9.688;2022-10-16T09:23:35;27.90;28.30
20610;DHT22;10463;52.378;9.688;2022-10-16T09:26:21;28.00;28.30
20610;DHT22;10463;52.378;9.688;2022-10-16T09:29:08;28.00;28.30
20610;DHT22;10463;52.378;9.688;2022-10-16T09:32:08;28.00;28.30
20610;DHT22;10463;52.378;9.688;2022-10-16T09:34:55;28.00;28.30
20610;DHT22;10463;52.378;9.688;2022-10-16T09:37:43;28.10;28.30
20610;DHT22;10463;52.378;9.688;2022-10-16T09:40:31;28.10;28.30
20610;DHT22;10463;52.378;9.688;2022-10-16T09:43:25;28.10;28.20
20610;DHT22;10463;52.378;9.688;2022-10-16T09:46:25;28.10;28.20
20610;DHT22;10463;52.378;9.688;2022-10-16T09:49:22;28.20;28.20
20610;DHT22;10463;52.378;9.688;2022-10-16T09:52:13;28.20;28.30
20610;DHT22;10463;52.378;9.688;2022-10-16T09:55:02;28.30;28.30
20610;DHT22;10463;52.378;9.688;2022-10-16T09:57:50;28.30;28.30
20610;DHT22;10463;52.378;9.688;2022-10-16T10:00:35;28.30;28.80
20610;DHT22;10463;52.378;9.688;2022-10-16T10:03:34;28.40;28.30
20610;DHT22;10463;52.378;9.688;2022-10-16T10:06:27;28.40;28.30
20610;DHT22;10463;52.378;9.688;2022-10-16T10:09:21;28.50;28.30
20610;DHT22;10463;52.378;9.688;2022-10-16T10:12:18;28.50;28.20
20610;DHT22;10463;52.378;9.688;2022-10-16T10:15:07;28.50;28.20
20610;DHT22;10463;52.378;9.688;2022-10-16T10:17:57;28.50;28.20
20610;DHT22;10463;52.378;9.688;2022-10-16T10:20:42;28.60;28.20
20610;DHT22;10463;52.378;9.688;2022-10-16T10:23:30;28.60;28.20
20610;DHT22;10463;52.378;9.688;2022-10-16T10:26:18;28.60;28.20
20610;DHT22;10463;52.378;9.688;2022-10-16T10:29:12;28.60;28.10
20610;DHT22;10463;52.378;9.688;2022-10-16T10:32:13;28.70;28.20
20610;DHT22;10463;52.378;9.688;2022-10-16T10:35:14;28.70;28.20
20610;DHT22;10463;52.378;9.688;2022-10-16T10:38:13;28.70;28.10
20610;DHT22;10463;52.378;9.688;2022-10-16T10:41:20;28.80;28.10
20610;DHT22;10463;52.378;9.688;2022-10-16T10:44:18;28.80;28.10
20610;DHT22;10463;52.378;9.688;2022-10-16T10:47:17;28.80;28.00
20610;DHT22;10463;52.378;9.688;2022-10-16T10:50:14;28.90;28.00
20610;DHT22;10463;52.378;9.688;2022-10-16T10:53:10;28.90;28.00
20610;DHT22;10463;52.378;9.688;2022-10-16T10:56:11;28.90;28.00
20610;DHT22;10463;52.378;9.688;2022-10-16T10:59:25;28.90;28.10
20610;DHT22;10463;52.378;9.688;2022-10-16T11:02:21;29.00;28.10
20610;DHT22;10463;52.378;9.688;2022-10-16T11:05:29;29.00;28.20
20610;DHT22;10463;52.378;9.688;2022-10-16T11:08:19;29.00;28.10
20610;DHT22;10463;52.378;9.688;2022-10-16T11:11:14;29.00;28.10
20610;DHT22;10463;52.378;9.688;2022-10-16T11:14:03;29.10;28.10
20610;DHT22;10463;52.378;9.688;2022-10-16T11:16:54;29.10;28.10
20610;DHT22;10463;52.378;9.688;2022-10-16T11:19:48;29.20;28.10
20610;DHT22;10463;52.378;9.688;2022-10-16T11:22:36;29.20;28.10
20610;DHT22;10463;52.378;9.688;2022-10-16T11:25:25;29.20;28.00
20610;DHT22;10463;52.378;9.688;2022-10-16T11:28:16;29.30;28.00
20610;DHT22;10463;52.378;9.688;2022-10-16T11:31:09;29.30;28.00
20610;DHT22;10463;52.378;9.688;2022-10-16T11:34:03;29.40;27.90
20610;DHT22;10463;52.378;9.688;2022-10-16T11:36:53;29.40;27.90
20610;DHT22;10463;52.378;9.688;2022-10-16T11:39:42;29.40;27.90
20610;DHT22;10463;52.378;9.688;2022-10-16T11:42:37;29.50;27.90
20610;DHT22;10463;52.378;9.688;2022-10-16T11:45:31;29.50;28.00
20610;DHT22;10463;52.378;9.688;2022-10-16T11:48:25;29.50;27.90
20610;DHT22;10463;52.378;9.688;2022-10-16T11:51:17;29.60;28.00
20610;DHT22;10463;52.378;9.688;2022-10-16T11:54:17;29.60;28.00
20610;DHT22;10463;52.378;9.688;2022-10-16T11:57:16;29.60;27.90
20610;DHT22;10463;52.378;9.688;2022-10-16T12:00:08;29.70;28.00
20610;DHT22;10463;52.378;9.688;2022-10-16T12:03:05;29.70;28.00
20610;DHT22;10463;52.378;9.688;2022-10-16T12:06:06;29.70;28.00
20610;DHT22;10463;52.378;9.688;2022-10-16T12:08:59;29.80;28.00
20610;DHT22;10463;52.378;9.688;2022-10-16T12:11:44;29.80;28.00
20610;DHT22;10463;52.378;9.688;2022-10-16T12:14:38;29.80;28.00
20610;DHT22;10463;52.378;9.688;2022-10-16T12:17:27;29.90;28.00
20610;DHT22;10463;52.378;9.688;2022-10-16T12:20:27;29.90;28.00
20610;DHT22;10463;52.378;9.688;2022-10-16T12:23:20;30.00;28.00
20610;DHT22;10463;52.378;9.688;2022-10-16T12:26:07;30.00;27.90
20610;DHT22;10463;52.378;9.688;2022-10-16T12:28:51;30.00;27.90
20610;DHT22;10463;52.378;9.688;2022-10-16T12:31:39;30.00;27.90
20610;DHT22;10463;52.378;9.688;2022-10-16T12:34:31;30.10;28.00
20610;DHT22;10463;52.378;9.688;2022-10-16T12:37:23;30.10;28.00
20610;DHT22;10463;52.378;9.688;2022-10-16T12:40:15;30.20;28.00
20610;DHT22;10463;52.378;9.688;2022-10-16T12:43:13;30.20;28.00
20610;DHT22;10463;52.378;9.688;2022-10-16T12:46:37;30.20;28.00
20610;DHT22;10463;52.378;9.688;2022-10-16T12:49:31;30.30;28.10
20610;DHT22;10463;52.378;9.688;2022-10-16T12:52:34;30.30;28.00
20610;DHT22;10463;52.378;9.688;2022-10-16T12:55:22;30.40;28.00
20610;DHT22;10463;52.378;9.688;2022-10-16T12:58:31;30.40;28.00
20610;DHT22;10463;52.378;9.688;2022-10-16T13:01:32;30.40;28.00
20610;DHT22;10463;52.378;9.688;2022-10-16T13:04:51;30.50;28.00
20610;DHT22;10463;52.378;9.688;2022-10-16T13:07:52;30.50;27.90
20610;DHT22;10463;52.378;9.688;2022-10-16T13:10:52;30.50;27.90
20610;DHT22;10463;52.378;9.688;2022-10-16T13:14:11;30.60;27.90
20610;DHT22;10463;52.378;9.688;2022-10-16T13:17:06;30.60;27.90
20610;DHT22;10463;52.378;9.688;2022-10-16T13:20:05;30.60;27.80
20610;DHT22;10463;52.378;9.688;2022-10-16T13:23:05;30.70;27.90
20610;DHT22;10463;52.378;9.688;2022-10-16T13:26:09;30.70;27.90
20610;DHT22;10463;52.378;9.688;2022-10-16T13:28:59;30.80;27.90
20610;DHT22;10463;52.378;9.688;2022-10-16T13:31:45;30.80;27.90
20610;DHT22;10463;52.378;9.688;2022-10-16T13:34:30;30.80;27.80
20610;DHT22;10463;52.378;9.688;2022-10-16T13:37:19;30.90;27.80
20610;DHT22;10463;52.378;9.688;2022-10-16T13:40:19;30.90;27.80
20610;DHT22;10463;52.378;9.688;2022-10-16T13:43:04;30.90;27.80
20610;DHT22;10463;52.378;9.688;2022-10-16T13:46:02;31.00;27.80
20610;DHT22;10463;52.378;9.688;2022-10-16T13:48:57;31.00;27.80
20610;DHT22;10463;52.378;9.688;2022-10-16T13:51:53;31.00;27.80
20610;DHT22;10463;52.378;9.688;2022-10-16T13:54:38;31.00;27.80
20610;DHT22;10463;52.378;9.688;2022-10-16T13:57:24;31.10;27.80
20610;DHT22;10463;52.378;9.688;2022-10-16T14:00:25;31.10;27.80
20610;DHT22;10463;52.378;9.688;2022-10-16T14:03:15;31.10;27.70
20610;DHT22;10463;52.378;9.688;2022-10-16T14:06:02;31.20;27.70
20610;DHT22;10463;52.378;9.688;2022-10-16T14:08:53;31.20;27.60
20610;DHT22;10463;52.378;9.688;2022-10-16T14:11:46;31.20;27.50
20610;DHT22;10463;52.378;9.688;2022-10-16T14:14:40;31.20;27.40
20610;DHT22;10463;52.378;9.688;2022-10-16T14:17:28;31.20;27.40
20610;DHT22;10463;52.378;9.688;2022-10-16T14:20:15;31.30;27.40
20610;DHT22;10463;52.378;9.688;2022-10-16T14:23:03;31.30;27.30
20610;DHT22;10463;52.378;9.688;2022-10-16T14:25:48;31.30;27.30
20610;DHT22;10463;52.378;9.688;2022-10-16T14:28:33;31.40;27.30
20610;DHT22;10463;52.378;9.688;2022-10-16T14:31:29;31.40;27.30
20610;DHT22;10463;52.378;9.688;2022-10-16T14:34:25;31.40;27.20
20610;DHT22;10463;52.378;9.688;2022-10-16T14:37:23;31.40;27.20
20610;DHT22;10463;52.378;9.688;2022-10-16T14:40:14;31.50;27.30
20610;DHT22;10463;52.378;9.688;2022-10-16T14:43:01;31.50;27.30
20610;DHT22;10463;52.378;9.688;2022-10-16T14:45:52;31.50;27.30
20610;DHT22;10463;52.378;9.688;2022-10-16T14:48:42;31.50;27.40
20610;DHT22;10463;52.378;9.688;2022-10-16T14:51:27;31.60;27.40
20610;DHT22;10463;52.378;9.688;2022-10-16T14:54:13;31.60;27.30
20610;DHT22;10463;52.378;9.688;2022-10-16T14:56:58;31.60;27.20
20610;DHT22;10463;52.378;9.688;2022-10-16T14:59:44;31.70;27.10
20610;DHT22;10463;52.378;9.688;2022-10-16T15:02:31;31.70;27.00
20610;DHT22;10463;52.378;9.688;2022-10-16T15:05:20;31.70;26.90
20610;DHT22;10463;52.378;9.688;2022-10-16T15:08:06;31.80;26.90
20610;DHT22;10463;52.378;9.688;2022-10-16T15:10:51;31.80;26.80
20610;DHT22;10463;52.378;9.688;2022-10-16T15:13:36;31.90;26.80
20610;DHT22;10463;52.378;9.688;2022-10-16T15:16:24;31.90;26.80
20610;DHT22;10463;52.378;9.688;2022-10-16T15:19:08;31.90;26.70
20610;DHT22;10463;52.378;9.688;2022-10-16T15:21:54;31.90;26.60
20610;DHT22;10463;52.378;9.688;2022-10-16T15:24:39;31.90;26.60
20610;DHT22;10463;52.378;9.688;2022-10-16T15:27:24;32.00;26.60
20610;DHT22;10463;52.378;9.688;2022-10-16T15:30:10;32.00;26.50
20610;DHT22;10463;52.378;9.688;2022-10-16T15:32:55;32.00;26.50
20610;DHT22;10463;52.378;9.688;2022-10-16T15:35:40;32.00;26.40
20610;DHT22;10463;52.378;9.688;2022-10-16T15:38:27;32.00;26.40
20610;DHT22;10463;52.378;9.688;2022-10-16T15:41:12;32.00;26.30
20610;DHT22;10463;52.378;9.688;2022-10-16T15:43:57;32.00;26.30
20610;DHT22;10463;52.378;9.688;2022-10-16T15:46:42;32.00;26.30
20610;DHT22;10463;52.378;9.688;2022-10-16T15:49:26;32.00;26.80
20610;DHT22;10463;52.378;9.688;2022-10-16T15:52:11;32.00;26.30
20610;DHT22;10463;52.378;9.688;2022-10-16T15:54:57;32.00;26.30
20610;DHT22;10463;52.378;9.688;2022-10-16T15:57:42;32.00;26.30
20610;DHT22;10463;52.378;9.688;2022-10-16T16:00:27;31.90;26.20
20610;DHT22;10463;52.378;9.688;2022-10-16T16:03:12;31.90;26.20
20610;DHT22;10463;52.378;9.688;2022-10-16T16:06:03;31.90;26.20
20610;DHT22;10463;52.378;9.688;2022-10-16T16:08:48;31.90;26.20
20610;DHT22;10463;52.378;9.688;2022-10-16T16:11:34;31.90;26.20
20610;DHT22;10463;52.378;9.688;2022-10-16T16:14:22;31.90;26.20
20610;DHT22;10463;52.378;9.688;2022-10-16T16:17:08;31.80;26.20
20610;DHT22;10463;52.378;9.688;2022-10-16T16:19:53;31.80;26.20
20610;DHT22;10463;52.378;9.688;2022-10-16T16:22:38;31.80;26.20
20610;DHT22;10463;52.378;9.688;2022-10-16T16:25:23;31.70;26.10
20610;DHT22;10463;52.378;9.688;2022-10-16T16:28:09;31.70;26.20
20610;DHT22;10463;52.378;9.688;2022-10-16T16:30:55;31.70;26.20
20610;DHT22;10463;52.378;9.688;2022-10-16T16:33:39;31.70;26.20
20610;DHT22;10463;52.378;9.688;2022-10-16T16:36:25;31.70;26.30
20610;DHT22;10463;52.378;9.688;2022-10-16T16:39:10;31.60;26.70
20610;DHT22;10463;52.378;9.688;2022-10-16T16:41:56;31.60;26.20
20610;DHT22;10463;52.378;9.688;2022-10-16T16:44:42;31.60;26.20
20610;DHT22;10463;52.378;9.688;2022-10-16T16:47:27;31.60;26.20
20610;DHT22;10463;52.378;9.688;2022-10-16T16:50:11;31.50;26.20
20610;DHT22;10463;52.378;9.688;2022-10-16T16:52:56;31.50;26.70
20610;DHT22;10463;52.378;9.688;2022-10-16T16:55:41;31.50;26.20
20610;DHT22;10463;52.378;9.688;2022-10-16T16:58:25;31.50;26.20
20610;DHT22;10463;52.378;9.688;2022-10-16T17:01:11;31.40;26.20
20610;DHT22;10463;52.378;9.688;2022-10-16T17:03:57;31.40;26.20
20610;DHT22;10463;52.378;9.688;2022-10-16T17:06:43;31.40;26.30
20610;DHT22;10463;52.378;9.688;2022-10-16T17:09:27;31.40;26.30
20610;DHT22;10463;52.378;9.688;2022-10-16T17:12:12;31.40;26.30
20610;DHT22;10463;52.378;9.688;2022-10-16T17:14:56;31.30;26.30
20610;DHT22;10463;52.378;9.688;2022-10-16T17:17:43;31.30;26.30
20610;DHT22;10463;52.378;9.688;2022-10-16T17:20:28;31.30;26.30
20610;DHT22;10463;52.378;9.688;2022-10-16T17:23:13;31.30;26.40
20610;DHT22;10463;52.378;9.688;2022-10-16T17:26:03;31.20;26.30
20610;DHT22;10463;52.378;9.688;2022-10-16T17:28:51;31.20;26.30
20610;DHT22;10463;52.378;9.688;2022-10-16T17:31:37;31.20;26.40
20610;DHT22;10463;52.378;9.688;2022-10-16T17:34:24;31.20;26.40
20610;DHT22;10463;52.378;9.688;2022-10-16T17:37:09;31.20;26.40
20610;DHT22;10463;52.378;9.688;2022-10-16T17:39:53;31.20;26.40
20610;DHT22;10463;52.378;9.688;2022-10-16T17:42:38;31.20;26.40
20610;DHT22;10463;52.378;9.688;2022-10-16T17:45:22;31.10;26.40
20610;DHT22;10463;52.378;9.688;2022-10-16T17:48:08;31.10;26.40